sensor_id;sensor_type;location;lat;lon;timestamp;P1;durP1;ratioP1;P2;durP2;ratioP2
72649;SDS011;61467;50.674;4.618;2023-06-14T00:00:15;11.33;;;5.40;;
72649;SDS011;61467;50.674;4.618;2023-06-14T00:02:42;9.70;;;5.35;;
72649;SDS011;61467;50.674;4.618;2023-06-14T00:05:11;8.65;;;5.15;;
72649;SDS011;61467;50.674;4.618;2023-06-14T00:07:38;9.77;;;5.15;;
72649;SDS011;61467;50.674;4.618;2023-06-14T00:10:08;9.23;;;5.30;;
72649;SDS011;61467;50.674;4.618;2023-06-14T00:12:35;8.97;;;4.40;;
72649;SDS011;61467;50.674;4.618;2023-06-14T00:15:03;9.32;;;4.72;;
72649;SDS011;61467;50.674;4.618;2023-06-14T00:17:30;9.73;;;4.70;;
72649;SDS011;61467;50.674;4.618;2023-06-14T00:19:57;9.70;;;5.57;;
72649;SDS011;61467;50.674;4.618;2023-06-14T00:22:25;9.48;;;5.20;;
72649;SDS011;61467;50.674;4.618;2023-06-14T00:24:53;10.43;;;4.80;;
72649;SDS011;61467;50.674;4.618;2023-06-14T00:27:20;9.35;;;5.43;;
72649;SDS011;61467;50.674;4.618;2023-06-14T00:29:47;9.38;;;5.07;;
72649;SDS011;61467;50.674;4.618;2023-06-14T00:32:17;9.02;;;5.00;;
72649;SDS011;61467;50.674;4.618;2023-06-14T00:34:44;11.55;;;5.13;;
72649;SDS011;61467;50.674;4.618;2023-06-14T00:37:11;9.87;;;5.40;;
72649;SDS011;61467;50.674;4.618;2023-06-14T00:39:39;9.52;;;4.57;;
72649;SDS011;61467;50.674;4.618;2023-06-14T00:42:06;9.10;;;5.18;;
72649;SDS011;61467;50.674;4.618;2023-06-14T00:44:33;12.23;;;5.53;;
72649;SDS011;61467;50.674;4.618;2023-06-14T00:47:00;10.20;;;5.40;;
72649;SDS011;61467;50.674;4.618;2023-06-14T00:49:27;10.43;;;5.53;;
72649;SDS011;61467;50.674;4.618;2023-06-14T00:51:55;10.57;;;5.47;;
72649;SDS011;61467;50.674;4.618;2023-06-14T00:54:22;9.40;;;5.22;;
72649;SDS011;61467;50.674;4.618;2023-06-14T00:56:50;11.93;;;4.95;;
72649;SDS011;61467;50.674;4.618;2023-06-14T00:59:17;7.63;;;4.80;;
72649;SDS011;61467;50.674;4.618;2023-06-14T01:01:44;9.17;;;4.97;;
72649;SDS011;61467;50.674;4.618;2023-06-14T01:04:11;8.38;;;5.43;;
72649;SDS011;61467;50.674;4.618;2023-06-14T01:06:42;10.75;;;5.20;;
72649;SDS011;61467;50.674;4.618;2023-06-14T01:09:18;10.35;;;5.30;;
72649;SDS011;61467;50.674;4.618;2023-06-14T01:12:00;10.70;;;4.97;;
72649;SDS011;61467;50.674;4.618;2023-06-14T01:14:31;10.27;;;5.50;;
72649;SDS011;61467;50.674;4.618;2023-06-14T01:17:00;10.07;;;5.25;;
72649;SDS011;61467;50.674;4.618;2023-06-14T01:19:28;10.25;;;5.45;;
72649;SDS011;61467;50.674;4.618;2023-06-14T01:21:56;9.18;;;5.30;;
72649;SDS011;61467;50.674;4.618;2023-06-14T01:24:27;9.32;;;5.07;;
72649;SDS011;61467;50.674;4.618;2023-06-14T01:26:57;10.27;;;6.20;;
72649;SDS011;61467;50.674;4.618;2023-06-14T01:29:25;9.68;;;5.55;;
72649;SDS011;61467;50.674;4.618;2023-06-14T01:31:58;9.00;;;5.55;;
72649;SDS011;61467;50.674;4.618;2023-06-14T01:34:25;10.02;;;5.50;;
72649;SDS011;61467;50.674;4.618;2023-06-14T01:36:52;11.95;;;5.72;;
72649;SDS011;61467;50.674;4.618;2023-06-14T01:39:20;10.03;;;5.50;;
72649;SDS011;61467;50.674;4.618;2023-06-14T01:41:50;10.57;;;5.68;;
72649;SDS011;61467;50.674;4.618;2023-06-14T01:44:18;9.00;;;5.32;;
72649;SDS011;61467;50.674;4.618;2023-06-14T01:46:46;10.25;;;5.35;;
72649;SDS011;61467;50.674;4.618;2023-06-14T01:49:14;9.85;;;5.35;;
72649;SDS011;61467;50.674;4.618;2023-06-14T01:51:41;10.73;;;5.67;;
72649;SDS011;61467;50.674;4.618;2023-06-14T01:54:08;11.82;;;5.80;;
72649;SDS011;61467;50.674;4.618;2023-06-14T01:56:34;11.20;;;5.40;;
72649;SDS011;61467;50.674;4.618;2023-06-14T01:59:03;9.70;;;5.75;;
72649;SDS011;61467;50.674;4.618;2023-06-14T02:01:29;9.60;;;5.80;;
72649;SDS011;61467;50.674;4.618;2023-06-14T02:03:59;10.43;;;5.70;;
72649;SDS011;61467;50.674;4.618;2023-06-14T02:06:26;10.63;;;6.00;;
72649;SDS011;61467;50.674;4.618;2023-06-14T02:08:53;9.05;;;5.50;;
72649;SDS011;61467;50.674;4.618;2023-06-14T02:11:20;9.70;;;5.10;;
72649;SDS011;61467;50.674;4.618;2023-06-14T02:13:47;11.43;;;6.00;;
72649;SDS011;61467;50.674;4.618;2023-06-14T02:16:15;9.90;;;5.87;;
72649;SDS011;61467;50.674;4.618;2023-06-14T02:18:43;9.70;;;5.93;;
72649;SDS011;61467;50.674;4.618;2023-06-14T02:21:09;8.98;;;5.38;;
72649;SDS011;61467;50.674;4.618;2023-06-14T02:23:36;15.75;;;5.82;;
72649;SDS011;61467;50.674;4.618;2023-06-14T02:26:03;10.35;;;5.80;;
72649;SDS011;61467;50.674;4.618;2023-06-14T02:28:30;10.73;;;5.77;;
72649;SDS011;61467;50.674;4.618;2023-06-14T02:30:57;11.43;;;5.68;;
72649;SDS011;61467;50.674;4.618;2023-06-14T02:33:25;13.05;;;5.40;;
72649;SDS011;61467;50.674;4.618;2023-06-14T02:35:52;11.95;;;6.15;;
72649;SDS011;61467;50.674;4.618;2023-06-14T02:38:19;10.00;;;5.75;;
72649;SDS011;61467;50.674;4.618;2023-06-14T02:40:46;9.67;;;5.17;;
72649;SDS011;61467;50.674;4.618;2023-06-14T02:43:13;10.48;;;6.20;;
72649;SDS011;61467;50.674;4.618;2023-06-14T02:45:40;10.20;;;6.15;;
72649;SDS011;61467;50.674;4.618;2023-06-14T02:48:07;11.00;;;5.60;;
72649;SDS011;61467;50.674;4.618;2023-06-14T02:50:35;12.57;;;6.03;;
72649;SDS011;61467;50.674;4.618;2023-06-14T02:53:02;11.57;;;6.03;;
72649;SDS011;61467;50.674;4.618;2023-06-14T02:55:29;13.00;;;5.85;;
72649;SDS011;61467;50.674;4.618;2023-06-14T02:57:55;9.38;;;6.25;;
72649;SDS011;61467;50.674;4.618;2023-06-14T03:00:22;10.07;;;6.22;;
72649;SDS011;61467;50.674;4.618;2023-06-14T03:02:49;10.40;;;5.88;;
72649;SDS011;61467;50.674;4.618;2023-06-14T03:05:17;10.90;;;6.00;;
72649;SDS011;61467;50.674;4.618;2023-06-14T03:07:47;11.50;;;5.78;;
72649;SDS011;61467;50.674;4.618;2023-06-14T03:10:15;10.65;;;6.35;;
72649;SDS011;61467;50.674;4.618;2023-06-14T03:12:42;12.57;;;6.50;;
72649;SDS011;61467;50.674;4.618;2023-06-14T03:15:09;11.18;;;5.78;;
72649;SDS011;61467;50.674;4.618;2023-06-14T03:17:38;9.67;;;5.93;;
72649;SDS011;61467;50.674;4.618;2023-06-14T03:20:06;10.88;;;5.80;;
72649;SDS011;61467;50.674;4.618;2023-06-14T03:22:34;9.85;;;6.10;;
72649;SDS011;61467;50.674;4.618;2023-06-14T03:25:02;9.85;;;5.75;;
72649;SDS011;61467;50.674;4.618;2023-06-14T03:27:30;10.07;;;6.03;;
72649;SDS011;61467;50.674;4.618;2023-06-14T03:29:57;13.03;;;6.33;;
72649;SDS011;61467;50.674;4.618;2023-06-14T03:32:24;11.45;;;6.30;;
72649;SDS011;61467;50.674;4.618;2023-06-14T03:34:50;9.90;;;6.45;;
72649;SDS011;61467;50.674;4.618;2023-06-14T03:37:17;11.65;;;6.03;;
72649;SDS011;61467;50.674;4.618;2023-06-14T03:39:44;11.10;;;6.63;;
72649;SDS011;61467;50.674;4.618;2023-06-14T03:42:14;11.00;;;5.93;;
72649;SDS011;61467;50.674;4.618;2023-06-14T03:44:42;11.70;;;6.50;;
72649;SDS011;61467;50.674;4.618;2023-06-14T03:47:08;9.98;;;6.13;;
72649;SDS011;61467;50.674;4.618;2023-06-14T03:49:35;9.60;;;6.35;;
72649;SDS011;61467;50.674;4.618;2023-06-14T03:52:03;10.40;;;6.32;;
72649;SDS011;61467;50.674;4.618;2023-06-14T03:54:30;10.90;;;6.20;;
72649;SDS011;61467;50.674;4.618;2023-06-14T03:56:58;10.48;;;5.72;;
72649;SDS011;61467;50.674;4.618;2023-06-14T03:59:26;10.98;;;6.15;;
72649;SDS011;61467;50.674;4.618;2023-06-14T04:01:53;10.43;;;6.63;;
72649;SDS011;61467;50.674;4.618;2023-06-14T04:04:20;11.35;;;6.40;;
72649;SDS011;61467;50.674;4.618;2023-06-14T04:06:53;9.93;;;6.23;;
72649;SDS011;61467;50.674;4.618;2023-06-14T04:09:21;14.93;;;6.82;;
72649;SDS011;61467;50.674;4.618;2023-06-14T04:11:51;12.25;;;6.03;;
72649;SDS011;61467;50.674;4.618;2023-06-14T04:14:18;11.10;;;5.97;;
72649;SDS011;61467;50.674;4.618;2023-06-14T04:16:47;10.73;;;6.35;;
72649;SDS011;61467;50.674;4.618;2023-06-14T04:19:14;10.53;;;6.43;;
72649;SDS011;61467;50.674;4.618;2023-06-14T04:21:41;11.43;;;6.15;;
72649;SDS011;61467;50.674;4.618;2023-06-14T04:24:08;10.55;;;6.43;;
72649;SDS011;61467;50.674;4.618;2023-06-14T04:26:38;10.15;;;6.35;;
72649;SDS011;61467;50.674;4.618;2023-06-14T04:29:05;11.23;;;6.13;;
72649;SDS011;61467;50.674;4.618;2023-06-14T04:31:32;16.20;;;6.83;;
72649;SDS011;61467;50.674;4.618;2023-06-14T04:34:00;12.10;;;6.80;;
72649;SDS011;61467;50.674;4.618;2023-06-14T04:36:30;12.13;;;6.85;;
72649;SDS011;61467;50.674;4.618;2023-06-14T04:38:59;11.18;;;6.72;;
72649;SDS011;61467;50.674;4.618;2023-06-14T04:41:28;11.77;;;6.72;;
72649;SDS011;61467;50.674;4.618;2023-06-14T04:43:56;10.37;;;6.03;;
72649;SDS011;61467;50.674;4.618;2023-06-14T04:46:26;11.23;;;6.45;;
72649;SDS011;61467;50.674;4.618;2023-06-14T04:48:53;13.20;;;6.60;;
72649;SDS011;61467;50.674;4.618;2023-06-14T04:51:23;12.60;;;6.72;;
72649;SDS011;61467;50.674;4.618;2023-06-14T04:53:54;12.10;;;6.75;;
72649;SDS011;61467;50.674;4.618;2023-06-14T04:56:22;11.97;;;6.87;;
72649;SDS011;61467;50.674;4.618;2023-06-14T04:58:50;11.30;;;7.15;;
72649;SDS011;61467;50.674;4.618;2023-06-14T05:01:18;12.68;;;8.18;;
72649;SDS011;61467;50.674;4.618;2023-06-14T05:03:44;13.85;;;7.28;;
72649;SDS011;61467;50.674;4.618;2023-06-14T05:06:13;13.07;;;7.18;;
72649;SDS011;61467;50.674;4.618;2023-06-14T05:08:42;12.10;;;6.93;;
72649;SDS011;61467;50.674;4.618;2023-06-14T05:11:08;12.13;;;6.55;;
72649;SDS011;61467;50.674;4.618;2023-06-14T05:13:35;12.05;;;6.63;;
72649;SDS011;61467;50.674;4.618;2023-06-14T05:16:02;11.52;;;6.10;;
72649;SDS011;61467;50.674;4.618;2023-06-14T05:18:29;12.70;;;7.18;;
72649;SDS011;61467;50.674;4.618;2023-06-14T05:20:56;13.10;;;7.03;;
72649;SDS011;61467;50.674;4.618;2023-06-14T05:23:23;12.40;;;6.80;;
72649;SDS011;61467;50.674;4.618;2023-06-14T05:25:51;12.65;;;7.30;;
72649;SDS011;61467;50.674;4.618;2023-06-14T05:28:18;14.88;;;7.80;;
72649;SDS011;61467;50.674;4.618;2023-06-14T05:30:45;14.85;;;6.63;;
72649;SDS011;61467;50.674;4.618;2023-06-14T05:33:13;12.30;;;7.03;;
72649;SDS011;61467;50.674;4.618;2023-06-14T05:35:40;13.25;;;7.35;;
72649;SDS011;61467;50.674;4.618;2023-06-14T05:38:07;10.45;;;6.53;;
72649;SDS011;61467;50.674;4.618;2023-06-14T05:40:34;12.80;;;7.30;;
72649;SDS011;61467;50.674;4.618;2023-06-14T05:43:02;11.45;;;6.18;;
72649;SDS011;61467;50.674;4.618;2023-06-14T05:45:29;11.87;;;6.90;;
72649;SDS011;61467;50.674;4.618;2023-06-14T05:47:56;13.43;;;6.88;;
72649;SDS011;61467;50.674;4.618;2023-06-14T05:50:22;12.98;;;7.15;;
72649;SDS011;61467;50.674;4.618;2023-06-14T05:52:49;11.40;;;6.38;;
72649;SDS011;61467;50.674;4.618;2023-06-14T05:55:16;12.65;;;7.10;;
72649;SDS011;61467;50.674;4.618;2023-06-14T05:57:43;10.10;;;6.80;;
72649;SDS011;61467;50.674;4.618;2023-06-14T06:00:12;14.70;;;7.13;;
72649;SDS011;61467;50.674;4.618;2023-06-14T06:02:41;12.43;;;6.82;;
72649;SDS011;61467;50.674;4.618;2023-06-14T06:05:08;11.38;;;7.20;;
72649;SDS011;61467;50.674;4.618;2023-06-14T06:07:35;12.63;;;6.55;;
72649;SDS011;61467;50.674;4.618;2023-06-14T06:10:03;11.43;;;6.47;;
72649;SDS011;61467;50.674;4.618;2023-06-14T06:12:31;15.70;;;6.97;;
72649;SDS011;61467;50.674;4.618;2023-06-14T06:14:58;10.65;;;6.30;;
72649;SDS011;61467;50.674;4.618;2023-06-14T06:17:26;10.75;;;6.97;;
72649;SDS011;61467;50.674;4.618;2023-06-14T06:19:53;12.20;;;6.70;;
72649;SDS011;61467;50.674;4.618;2023-06-14T06:22:20;12.67;;;6.63;;
72649;SDS011;61467;50.674;4.618;2023-06-14T06:24:47;12.32;;;7.18;;
72649;SDS011;61467;50.674;4.618;2023-06-14T06:27:14;12.98;;;6.63;;
72649;SDS011;61467;50.674;4.618;2023-06-14T06:29:41;16.50;;;6.78;;
72649;SDS011;61467;50.674;4.618;2023-06-14T06:32:09;11.68;;;5.90;;
72649;SDS011;61467;50.674;4.618;2023-06-14T06:34:37;13.73;;;6.13;;
72649;SDS011;61467;50.674;4.618;2023-06-14T06:37:04;10.23;;;6.50;;
72649;SDS011;61467;50.674;4.618;2023-06-14T06:39:31;11.60;;;6.57;;
72649;SDS011;61467;50.674;4.618;2023-06-14T06:41:58;9.88;;;5.78;;
72649;SDS011;61467;50.674;4.618;2023-06-14T06:44:25;12.35;;;7.05;;
72649;SDS011;61467;50.674;4.618;2023-06-14T06:46:51;10.43;;;6.20;;
72649;SDS011;61467;50.674;4.618;2023-06-14T06:49:18;10.60;;;6.15;;
72649;SDS011;61467;50.674;4.618;2023-06-14T06:52:00;11.77;;;6.00;;
72649;SDS011;61467;50.674;4.618;2023-06-14T06:54:28;11.75;;;6.63;;
72649;SDS011;61467;50.674;4.618;2023-06-14T06:56:55;9.23;;;5.72;;
72649;SDS011;61467;50.674;4.618;2023-06-14T06:59:22;11.33;;;6.07;;
72649;SDS011;61467;50.674;4.618;2023-06-14T07:01:49;11.57;;;6.43;;
72649;SDS011;61467;50.674;4.618;2023-06-14T07:04:16;9.93;;;6.80;;
72649;SDS011;61467;50.674;4.618;2023-06-14T07:06:43;9.68;;;6.20;;
72649;SDS011;61467;50.674;4.618;2023-06-14T07:09:12;10.35;;;6.00;;
72649;SDS011;61467;50.674;4.618;2023-06-14T07:11:40;9.60;;;6.33;;
72649;SDS011;61467;50.674;4.618;2023-06-14T07:14:07;12.38;;;6.13;;
72649;SDS011;61467;50.674;4.618;2023-06-14T07:16:34;12.85;;;5.57;;
72649;SDS011;61467;50.674;4.618;2023-06-14T07:19:01;15.20;;;6.72;;
72649;SDS011;61467;50.674;4.618;2023-06-14T07:21:28;10.77;;;6.45;;
72649;SDS011;61467;50.674;4.618;2023-06-14T07:23:55;11.63;;;5.90;;
72649;SDS011;61467;50.674;4.618;2023-06-14T07:26:24;12.52;;;6.68;;
72649;SDS011;61467;50.674;4.618;2023-06-14T07:28:51;11.65;;;6.32;;
72649;SDS011;61467;50.674;4.618;2023-06-14T07:31:18;10.13;;;5.85;;
72649;SDS011;61467;50.674;4.618;2023-06-14T07:33:45;10.07;;;5.57;;
72649;SDS011;61467;50.674;4.618;2023-06-14T07:36:12;9.53;;;6.07;;
72649;SDS011;61467;50.674;4.618;2023-06-14T07:38:39;11.20;;;5.90;;
72649;SDS011;61467;50.674;4.618;2023-06-14T07:41:06;12.70;;;6.32;;
72649;SDS011;61467;50.674;4.618;2023-06-14T07:43:34;11.20;;;6.40;;
72649;SDS011;61467;50.674;4.618;2023-06-14T07:46:01;10.40;;;6.00;;
72649;SDS011;61467;50.674;4.618;2023-06-14T07:48:28;11.47;;;5.60;;
72649;SDS011;61467;50.674;4.618;2023-06-14T07:50:55;9.60;;;6.00;;
72649;SDS011;61467;50.674;4.618;2023-06-14T07:53:22;10.40;;;6.50;;
72649;SDS011;61467;50.674;4.618;2023-06-14T07:55:48;10.25;;;5.95;;
72649;SDS011;61467;50.674;4.618;2023-06-14T07:58:16;10.45;;;5.97;;
72649;SDS011;61467;50.674;4.618;2023-06-14T08:00:44;9.73;;;6.03;;
72649;SDS011;61467;50.674;4.618;2023-06-14T08:03:11;11.07;;;5.38;;
72649;SDS011;61467;50.674;4.618;2023-06-14T08:05:38;8.93;;;5.20;;
72649;SDS011;61467;50.674;4.618;2023-06-14T08:08:04;11.15;;;5.60;;
72649;SDS011;61467;50.674;4.618;2023-06-14T08:10:31;11.48;;;6.00;;
72649;SDS011;61467;50.674;4.618;2023-06-14T08:12:58;9.43;;;5.53;;
72649;SDS011;61467;50.674;4.618;2023-06-14T08:15:25;11.48;;;5.68;;
72649;SDS011;61467;50.674;4.618;2023-06-14T08:17:53;13.57;;;6.03;;
72649;SDS011;61467;50.674;4.618;2023-06-14T08:20:20;9.20;;;5.63;;
72649;SDS011;61467;50.674;4.618;2023-06-14T08:22:47;9.18;;;5.07;;
72649;SDS011;61467;50.674;4.618;2023-06-14T08:25:13;9.27;;;5.60;;
72649;SDS011;61467;50.674;4.618;2023-06-14T08:27:40;9.63;;;5.25;;
72649;SDS011;61467;50.674;4.618;2023-06-14T08:30:07;10.57;;;5.20;;
72649;SDS011;61467;50.674;4.618;2023-06-14T08:32:35;9.52;;;5.03;;
72649;SDS011;61467;50.674;4.618;2023-06-14T08:35:03;10.48;;;5.03;;
72649;SDS011;61467;50.674;4.618;2023-06-14T08:37:31;9.60;;;5.10;;
72649;SDS011;61467;50.674;4.618;2023-06-14T08:39:58;11.20;;;5.60;;
72649;SDS011;61467;50.674;4.618;2023-06-14T08:42:25;11.20;;;5.63;;
72649;SDS011;61467;50.674;4.618;2023-06-14T08:44:52;9.52;;;5.78;;
72649;SDS011;61467;50.674;4.618;2023-06-14T08:47:19;9.70;;;5.57;;
72649;SDS011;61467;50.674;4.618;2023-06-14T08:49:46;10.63;;;6.20;;
72649;SDS011;61467;50.674;4.618;2023-06-14T08:52:15;11.75;;;5.75;;
72649;SDS011;61467;50.674;4.618;2023-06-14T08:54:47;12.10;;;5.80;;
72649;SDS011;61467;50.674;4.618;2023-06-14T08:57:16;14.30;;;6.07;;
72649;SDS011;61467;50.674;4.618;2023-06-14T08:59:46;11.75;;;6.45;;
72649;SDS011;61467;50.674;4.618;2023-06-14T09:02:17;12.17;;;5.93;;
72649;SDS011;61467;50.674;4.618;2023-06-14T09:04:44;14.27;;;5.88;;
72649;SDS011;61467;50.674;4.618;2023-06-14T09:07:11;10.20;;;6.45;;
72649;SDS011;61467;50.674;4.618;2023-06-14T09:09:40;14.23;;;6.63;;
72649;SDS011;61467;50.674;4.618;2023-06-14T09:12:10;10.57;;;6.00;;
72649;SDS011;61467;50.674;4.618;2023-06-14T09:14:37;20.00;;;6.17;;
72649;SDS011;61467;50.674;4.618;2023-06-14T09:17:07;11.48;;;5.93;;
72649;SDS011;61467;50.674;4.618;2023-06-14T09:19:34;13.40;;;6.38;;
72649;SDS011;61467;50.674;4.618;2023-06-14T09:22:02;11.52;;;6.28;;
72649;SDS011;61467;50.674;4.618;2023-06-14T09:24:30;12.60;;;6.25;;
72649;SDS011;61467;50.674;4.618;2023-06-14T09:26:58;11.97;;;6.63;;
72649;SDS011;61467;50.674;4.618;2023-06-14T09:29:25;12.15;;;6.18;;
72649;SDS011;61467;50.674;4.618;2023-06-14T09:31:53;11.77;;;6.63;;
72649;SDS011;61467;50.674;4.618;2023-06-14T09:34:19;11.35;;;5.93;;
72649;SDS011;61467;50.674;4.618;2023-06-14T09:36:48;11.70;;;6.13;;
72649;SDS011;61467;50.674;4.618;2023-06-14T09:39:16;10.20;;;6.20;;
72649;SDS011;61467;50.674;4.618;2023-06-14T09:41:43;10.15;;;5.68;;
72649;SDS011;61467;50.674;4.618;2023-06-14T09:44:13;11.43;;;5.50;;
72649;SDS011;61467;50.674;4.618;2023-06-14T09:46:40;12.85;;;5.22;;
72649;SDS011;61467;50.674;4.618;2023-06-14T09:49:06;14.05;;;5.35;;
72649;SDS011;61467;50.674;4.618;2023-06-14T09:51:36;15.53;;;5.93;;
72649;SDS011;61467;50.674;4.618;2023-06-14T09:54:09;12.95;;;5.32;;
72649;SDS011;61467;50.674;4.618;2023-06-14T09:56:41;10.00;;;5.80;;
72649;SDS011;61467;50.674;4.618;2023-06-14T09:59:12;10.45;;;5.68;;
72649;SDS011;61467;50.674;4.618;2023-06-14T10:01:41;9.68;;;5.38;;
72649;SDS011;61467;50.674;4.618;2023-06-14T10:04:09;12.13;;;5.17;;
72649;SDS011;61467;50.674;4.618;2023-06-14T10:06:37;10.70;;;5.65;;
72649;SDS011;61467;50.674;4.618;2023-06-14T10:09:07;10.20;;;5.55;;
72649;SDS011;61467;50.674;4.618;2023-06-14T10:11:35;9.15;;;4.93;;
72649;SDS011;61467;50.674;4.618;2023-06-14T10:14:04;9.75;;;4.78;;
72649;SDS011;61467;50.674;4.618;2023-06-14T10:16:34;8.73;;;4.93;;
72649;SDS011;61467;50.674;4.618;2023-06-14T10:19:07;10.07;;;4.68;;
72649;SDS011;61467;50.674;4.618;2023-06-14T10:21:41;10.00;;;5.85;;
72649;SDS011;61467;50.674;4.618;2023-06-14T10:24:18;7.78;;;4.30;;
72649;SDS011;61467;50.674;4.618;2023-06-14T10:26:53;8.50;;;4.85;;
72649;SDS011;61467;50.674;4.618;2023-06-14T10:29:20;9.90;;;5.20;;
72649;SDS011;61467;50.674;4.618;2023-06-14T10:31:49;8.10;;;3.95;;
72649;SDS011;61467;50.674;4.618;2023-06-14T10:34:23;8.40;;;4.72;;
72649;SDS011;61467;50.674;4.618;2023-06-14T10:37:00;9.25;;;5.18;;
72649;SDS011;61467;50.674;4.618;2023-06-14T10:39:29;9.95;;;5.00;;
72649;SDS011;61467;50.674;4.618;2023-06-14T10:41:57;13.03;;;5.00;;
72649;SDS011;61467;50.674;4.618;2023-06-14T10:44:33;10.82;;;4.60;;
72649;SDS011;61467;50.674;4.618;2023-06-14T10:47:19;10.80;;;4.70;;
72649;SDS011;61467;50.674;4.618;2023-06-14T10:49:49;13.23;;;4.43;;
72649;SDS011;61467;50.674;4.618;2023-06-14T10:52:19;8.90;;;4.60;;
72649;SDS011;61467;50.674;4.618;2023-06-14T10:55:04;9.53;;;4.43;;
72649;SDS011;61467;50.674;4.618;2023-06-14T10:57:36;9.73;;;4.50;;
72649;SDS011;61467;50.674;4.618;2023-06-14T11:00:05;8.63;;;4.80;;
72649;SDS011;61467;50.674;4.618;2023-06-14T11:05:49;11.75;;;4.18;;
72649;SDS011;61467;50.674;4.618;2023-06-14T11:11:20;9.05;;;3.97;;
72649;SDS011;61467;50.674;4.618;2023-06-14T11:13:49;10.88;;;4.10;;
72649;SDS011;61467;50.674;4.618;2023-06-14T11:16:18;10.32;;;3.90;;
72649;SDS011;61467;50.674;4.618;2023-06-14T11:18:45;9.10;;;4.38;;
72649;SDS011;61467;50.674;4.618;2023-06-14T11:21:16;11.50;;;4.10;;
72649;SDS011;61467;50.674;4.618;2023-06-14T11:23:48;10.02;;;4.28;;
72649;SDS011;61467;50.674;4.618;2023-06-14T11:26:23;9.55;;;4.07;;
72649;SDS011;61467;50.674;4.618;2023-06-14T11:28:55;9.15;;;4.25;;
72649;SDS011;61467;50.674;4.618;2023-06-14T11:31:23;9.60;;;4.15;;
72649;SDS011;61467;50.674;4.618;2023-06-14T11:33:50;10.07;;;4.43;;
72649;SDS011;61467;50.674;4.618;2023-06-14T11:36:18;12.13;;;4.35;;
72649;SDS011;61467;50.674;4.618;2023-06-14T11:38:45;7.80;;;3.50;;
72649;SDS011;61467;50.674;4.618;2023-06-14T11:41:12;12.68;;;4.20;;
72649;SDS011;61467;50.674;4.618;2023-06-14T11:43:39;9.50;;;3.72;;
72649;SDS011;61467;50.674;4.618;2023-06-14T11:46:11;11.70;;;3.97;;
72649;SDS011;61467;50.674;4.618;2023-06-14T11:48:40;9.57;;;3.92;;
72649;SDS011;61467;50.674;4.618;2023-06-14T11:51:08;11.68;;;3.95;;
72649;SDS011;61467;50.674;4.618;2023-06-14T11:53:37;9.80;;;3.78;;
72649;SDS011;61467;50.674;4.618;2023-06-14T11:56:05;9.60;;;3.50;;
72649;SDS011;61467;50.674;4.618;2023-06-14T11:58:32;8.57;;;3.50;;
72649;SDS011;61467;50.674;4.618;2023-06-14T12:00:59;9.88;;;3.95;;
72649;SDS011;61467;50.674;4.618;2023-06-14T12:03:27;11.27;;;3.28;;
72649;SDS011;61467;50.674;4.618;2023-06-14T12:06:04;8.48;;;3.67;;
72649;SDS011;61467;50.674;4.618;2023-06-14T12:08:33;13.63;;;3.75;;
72649;SDS011;61467;50.674;4.618;2023-06-14T12:11:06;7.63;;;3.40;;
72649;SDS011;61467;50.674;4.618;2023-06-14T12:13:37;7.30;;;3.35;;
72649;SDS011;61467;50.674;4.618;2023-06-14T12:16:06;8.57;;;3.92;;
72649;SDS011;61467;50.674;4.618;2023-06-14T12:18:34;7.45;;;3.38;;
72649;SDS011;61467;50.674;4.618;2023-06-14T12:21:02;9.25;;;3.22;;
72649;SDS011;61467;50.674;4.618;2023-06-14T12:26:22;9.52;;;3.63;;
72649;SDS011;61467;50.674;4.618;2023-06-14T12:28:52;9.63;;;3.75;;
72649;SDS011;61467;50.674;4.618;2023-06-14T12:31:19;9.27;;;3.22;;
72649;SDS011;61467;50.674;4.618;2023-06-14T12:33:47;7.53;;;3.28;;
72649;SDS011;61467;50.674;4.618;2023-06-14T12:36:14;8.33;;;3.10;;
72649;SDS011;61467;50.674;4.618;2023-06-14T12:38:42;10.02;;;3.45;;
72649;SDS011;61467;50.674;4.618;2023-06-14T12:41:10;8.20;;;3.25;;
72649;SDS011;61467;50.674;4.618;2023-06-14T12:43:40;9.75;;;3.55;;
72649;SDS011;61467;50.674;4.618;2023-06-14T12:46:08;12.13;;;3.42;;
72649;SDS011;61467;50.674;4.618;2023-06-14T12:48:34;8.53;;;3.60;;
72649;SDS011;61467;50.674;4.618;2023-06-14T12:51:01;8.68;;;3.38;;
72649;SDS011;61467;50.674;4.618;2023-06-14T12:53:28;10.68;;;3.60;;
72649;SDS011;61467;50.674;4.618;2023-06-14T12:55:55;9.38;;;3.58;;
72649;SDS011;61467;50.674;4.618;2023-06-14T12:58:22;9.55;;;3.67;;
72649;SDS011;61467;50.674;4.618;2023-06-14T13:00:50;8.17;;;3.50;;
72649;SDS011;61467;50.674;4.618;2023-06-14T13:03:17;7.57;;;3.40;;
72649;SDS011;61467;50.674;4.618;2023-06-14T13:05:44;8.90;;;3.50;;
72649;SDS011;61467;50.674;4.618;2023-06-14T13:08:11;8.80;;;3.20;;
72649;SDS011;61467;50.674;4.618;2023-06-14T13:10:38;9.93;;;3.25;;
72649;SDS011;61467;50.674;4.618;2023-06-14T13:13:05;11.23;;;3.80;;
72649;SDS011;61467;50.674;4.618;2023-06-14T13:15:32;7.35;;;2.97;;
72649;SDS011;61467;50.674;4.618;2023-06-14T13:18:01;8.43;;;2.83;;
72649;SDS011;61467;50.674;4.618;2023-06-14T13:20:28;11.02;;;3.40;;
72649;SDS011;61467;50.674;4.618;2023-06-14T13:22:55;6.40;;;3.08;;
72649;SDS011;61467;50.674;4.618;2023-06-14T13:25:22;7.83;;;2.63;;
72649;SDS011;61467;50.674;4.618;2023-06-14T13:27:49;9.95;;;2.75;;
72649;SDS011;61467;50.674;4.618;2023-06-14T13:30:16;7.70;;;2.70;;
72649;SDS011;61467;50.674;4.618;2023-06-14T13:32:42;6.47;;;2.70;;
72649;SDS011;61467;50.674;4.618;2023-06-14T13:35:11;6.60;;;2.42;;
72649;SDS011;61467;50.674;4.618;2023-06-14T13:37:39;8.83;;;2.33;;
72649;SDS011;61467;50.674;4.618;2023-06-14T13:40:06;5.97;;;2.10;;
72649;SDS011;61467;50.674;4.618;2023-06-14T13:42:33;7.30;;;2.30;;
72649;SDS011;61467;50.674;4.618;2023-06-14T13:45:01;7.43;;;2.63;;
72649;SDS011;61467;50.674;4.618;2023-06-14T13:47:28;6.85;;;2.20;;
72649;SDS011;61467;50.674;4.618;2023-06-14T13:49:55;8.90;;;2.47;;
72649;SDS011;61467;50.674;4.618;2023-06-14T13:52:23;8.30;;;2.35;;
72649;SDS011;61467;50.674;4.618;2023-06-14T13:54:50;5.70;;;1.90;;
72649;SDS011;61467;50.674;4.618;2023-06-14T13:57:17;7.25;;;1.98;;
72649;SDS011;61467;50.674;4.618;2023-06-14T13:59:44;5.75;;;1.42;;
72649;SDS011;61467;50.674;4.618;2023-06-14T14:02:11;6.97;;;1.77;;
72649;SDS011;61467;50.674;4.618;2023-06-14T14:04:39;7.05;;;1.80;;
72649;SDS011;61467;50.674;4.618;2023-06-14T14:07:06;5.70;;;1.60;;
72649;SDS011;61467;50.674;4.618;2023-06-14T14:09:35;5.38;;;1.85;;
72649;SDS011;61467;50.674;4.618;2023-06-14T14:12:03;6.30;;;1.83;;
72649;SDS011;61467;50.674;4.618;2023-06-14T14:14:31;5.00;;;1.83;;
72649;SDS011;61467;50.674;4.618;2023-06-14T14:16:58;5.53;;;1.85;;
72649;SDS011;61467;50.674;4.618;2023-06-14T14:19:25;5.45;;;1.98;;
72649;SDS011;61467;50.674;4.618;2023-06-14T14:21:52;9.48;;;1.75;;
72649;SDS011;61467;50.674;4.618;2023-06-14T14:24:19;6.55;;;1.73;;
72649;SDS011;61467;50.674;4.618;2023-06-14T14:26:48;6.43;;;1.50;;
72649;SDS011;61467;50.674;4.618;2023-06-14T14:29:18;7.18;;;1.60;;
72649;SDS011;61467;50.674;4.618;2023-06-14T14:31:45;4.43;;;1.30;;
72649;SDS011;61467;50.674;4.618;2023-06-14T14:34:12;5.75;;;1.30;;
72649;SDS011;61467;50.674;4.618;2023-06-14T14:36:39;5.32;;;1.17;;
72649;SDS011;61467;50.674;4.618;2023-06-14T14:39:07;5.53;;;1.30;;
72649;SDS011;61467;50.674;4.618;2023-06-14T14:41:34;5.93;;;1.30;;
72649;SDS011;61467;50.674;4.618;2023-06-14T14:44:04;6.75;;;1.40;;
72649;SDS011;61467;50.674;4.618;2023-06-14T14:46:31;5.75;;;1.30;;
72649;SDS011;61467;50.674;4.618;2023-06-14T14:48:58;5.75;;;1.58;;
72649;SDS011;61467;50.674;4.618;2023-06-14T14:51:25;4.63;;;1.53;;
72649;SDS011;61467;50.674;4.618;2023-06-14T14:53:52;6.30;;;1.40;;